createdAt,value
2023-01-22T00:00:35.298Z,103487.56
2023-01-22T00:03:02.036Z,103489.41
2023-01-22T00:05:28.522Z,103484.44
2023-01-22T00:07:55.640Z,103488.19
2023-01-22T00:10:22.435Z,103481.91
2023-01-22T00:12:48.885Z,103475.63
2023-01-22T00:15:15.430Z,103485.91
2023-01-22T00:17:41.923Z,103481.50
2023-01-22T00:20:09.999Z,103475.03
2023-01-22T00:22:36.972Z,103478.34
2023-01-22T00:25:05.315Z,103484.63
2023-01-22T00:27:31.768Z,103469.75
2023-01-22T00:29:58.277Z,103465.81
2023-01-22T00:32:24.836Z,103477.75
2023-01-22T00:34:52.922Z,103465.38
2023-01-22T00:37:20.391Z,103467.25
2023-01-22T00:39:47.300Z,103460.75
2023-01-22T00:42:13.814Z,103458.28
2023-01-22T00:44:40.326Z,103466.63
2023-01-22T00:47:06.807Z,103467.69
2023-01-22T00:49:33.314Z,103468.72
2023-01-22T00:51:59.831Z,103455.56
2023-01-22T00:54:26.392Z,103452.00
2023-01-22T00:56:52.859Z,103450.34
2023-01-22T00:59:19.351Z,103454.72
2023-01-22T01:01:45.934Z,103454.09
2023-01-22T01:04:13.655Z,103453.25
2023-01-22T01:06:40.340Z,103456.19
2023-01-22T01:09:06.924Z,103456.38
2023-01-22T01:11:33.517Z,103449.28
2023-01-22T01:14:01.983Z,103448.69
2023-01-22T01:16:30.698Z,103444.91
2023-01-22T01:18:59.644Z,103451.41
2023-01-22T01:21:26.640Z,103457.66
2023-01-22T01:23:55.002Z,103456.19
2023-01-22T01:26:21.943Z,103462.47
2023-01-22T01:28:49.243Z,103457.44
2023-01-22T01:31:16.809Z,103449.28
2023-01-22T01:33:44.008Z,103446.56
2023-01-22T01:36:16.621Z,103449.50
2023-01-22T01:38:44.233Z,103452.22
2023-01-22T01:41:14.647Z,103444.28
2023-01-22T01:43:41.350Z,103442.41
2023-01-22T01:46:24.432Z,103457.25
2023-01-22T01:48:55.326Z,103445.53
2023-01-22T01:51:36.722Z,103445.75
2023-01-22T01:54:05.198Z,103446.78
2023-01-22T01:56:37.867Z,103447.84
2023-01-22T01:59:09.005Z,103445.13
2023-01-22T02:01:36.638Z,103445.34
2023-01-22T02:04:03.665Z,103445.34
2023-01-22T02:06:30.247Z,103436.78
2023-01-22T02:08:57.764Z,103429.22
2023-01-22T02:11:25.350Z,103422.34
2023-01-22T02:13:57.805Z,103422.34
2023-01-22T02:16:24.347Z,103417.75
2023-01-22T02:18:51.047Z,103418.16
2023-01-22T02:21:35.499Z,103409.78
2023-01-22T02:24:07.536Z,103412.72
2023-01-22T02:26:34.430Z,103414.81
2023-01-22T02:29:01.014Z,103413.56
2023-01-22T02:31:27.611Z,103403.34
2023-01-22T02:33:54.460Z,103411.69
2023-01-22T02:36:21.412Z,103418.81
2023-01-22T02:38:47.987Z,103409.38
2023-01-22T02:41:15.166Z,103408.13
2023-01-22T02:43:41.708Z,103414.63
2023-01-22T02:46:08.238Z,103409.38
2023-01-22T02:48:34.801Z,103408.53
2023-01-22T02:51:01.349Z,103407.94
2023-01-22T02:53:27.885Z,103405.22
2023-01-22T02:55:54.494Z,103406.47
2023-01-22T02:58:20.981Z,103418.16
2023-01-22T03:00:47.506Z,103416.72
2023-01-22T03:03:15.629Z,103409.00
2023-01-22T03:05:50.089Z,103419.22
2023-01-22T03:08:17.276Z,103406.03
2023-01-22T03:10:44.251Z,103409.59
2023-01-22T03:13:29.328Z,103409.59
2023-01-22T03:16:14.945Z,103410.00
2023-01-22T03:19:00.140Z,103407.28
2023-01-22T03:21:27.232Z,103408.75
2023-01-22T03:23:54.870Z,103392.69
2023-01-22T03:26:23.366Z,103398.53
2023-01-22T03:28:50.475Z,103398.31
2023-01-22T03:31:17.441Z,103387.44
2023-01-22T03:33:44.072Z,103391.44
2023-01-22T03:36:13.159Z,103402.72
2023-01-22T03:38:39.689Z,103393.50
2023-01-22T03:41:08.724Z,103394.56
2023-01-22T03:43:35.793Z,103389.13
2023-01-22T03:46:10.457Z,103393.72
2023-01-22T03:48:37.748Z,103381.59
2023-01-22T03:51:09.724Z,103390.19
2023-01-22T03:53:36.815Z,103377.63
2023-01-22T03:56:09.246Z,103384.94
2023-01-22T03:58:36.151Z,103379.50
2023-01-22T04:01:08.849Z,103380.56
2023-01-22T04:03:36.186Z,103371.16
2023-01-22T04:06:03.472Z,103390.38
2023-01-22T04:08:32.591Z,103384.94
2023-01-22T04:11:00.451Z,103382.22
2023-01-22T04:13:29.649Z,103366.97
2023-01-22T04:15:56.274Z,103372.63
2023-01-22T04:18:22.787Z,103363.44
2023-01-22T04:20:50.096Z,103358.81
2023-01-22T04:23:16.768Z,103357.16
2023-01-22T04:25:44.443Z,103349.84
2023-01-22T04:28:11.906Z,103352.16
2023-01-22T04:30:39.201Z,103347.53
2023-01-22T04:33:06.341Z,103347.34
2023-01-22T04:35:33.284Z,103347.34
2023-01-22T04:37:59.819Z,103353.63
2023-01-22T04:40:26.642Z,103357.16
2023-01-22T04:42:53.115Z,103352.97
2023-01-22T04:45:19.769Z,103352.56
2023-01-22T04:47:48.754Z,103357.16
2023-01-22T04:50:18.730Z,103362.59
2023-01-22T04:52:45.698Z,103356.53
2023-01-22T04:55:13.464Z,103353.19
2023-01-22T04:57:40.030Z,103353.19
2023-01-22T05:00:07.943Z,103347.31
2023-01-22T05:02:34.479Z,103346.50
2023-01-22T05:05:01.062Z,103338.75
2023-01-22T05:07:27.607Z,103351.53
2023-01-22T05:09:54.123Z,103346.47
2023-01-22T05:12:20.612Z,103346.25
2023-01-22T05:14:47.291Z,103336.59
2023-01-22T05:17:13.897Z,103339.31
2023-01-22T05:19:40.540Z,103337.44
2023-01-22T05:22:07.102Z,103345.81
2023-01-22T05:24:33.838Z,103344.97
2023-01-22T05:27:00.595Z,103346.00
2023-01-22T05:29:27.215Z,103343.28
2023-01-22T05:31:54.579Z,103346.00
2023-01-22T05:34:21.496Z,103358.56
2023-01-22T05:36:48.278Z,103355.84
2023-01-22T05:39:16.216Z,103352.06
2023-01-22T05:41:42.950Z,103349.75
2023-01-22T05:44:13.910Z,103352.25
2023-01-22T05:46:40.485Z,103350.38
2023-01-22T05:49:07.301Z,103352.06
2023-01-22T05:51:34.516Z,103352.06
2023-01-22T05:54:01.707Z,103357.50
2023-01-22T05:56:28.250Z,103352.66
2023-01-22T05:58:54.809Z,103355.59
2023-01-22T06:01:21.313Z,103360.16
2023-01-22T06:03:47.952Z,103364.34
2023-01-22T06:06:15.116Z,103363.06
2023-01-22T06:08:42.231Z,103363.88
2023-01-22T06:11:12.618Z,103360.34
2023-01-22T06:13:39.921Z,103364.28
2023-01-22T06:16:07.936Z,103374.50
2023-01-22T06:18:35.370Z,103366.34
2023-01-22T06:21:04.599Z,103373.91
2023-01-22T06:23:31.847Z,103370.38
2023-01-22T06:26:00.189Z,103364.91
2023-01-22T06:28:26.817Z,103368.66
2023-01-22T06:30:57.842Z,103360.75
2023-01-22T06:33:24.607Z,103356.34
2023-01-22T06:35:55.461Z,103361.16
2023-01-22T06:38:23.183Z,103367.66
2023-01-22T06:40:57.383Z,103359.22
2023-01-22T06:43:24.993Z,103367.13
2023-01-22T06:45:52.325Z,103358.28
2023-01-22T06:48:19.011Z,103363.50
2023-01-22T06:50:46.034Z,103366.41
2023-01-22T06:53:12.629Z,103370.59
2023-01-22T06:55:39.234Z,103365.75
2023-01-22T06:58:05.836Z,103361.59
2023-01-22T07:00:32.555Z,103378.78
2023-01-22T07:02:59.125Z,103369.34
2023-01-22T07:05:27.365Z,103372.94
2023-01-22T07:07:55.150Z,103367.09
2023-01-22T07:10:22.757Z,103361.00
2023-01-22T07:12:56.566Z,103366.88
2023-01-22T07:15:23.164Z,103372.31
2023-01-22T07:17:53.887Z,103370.63
2023-01-22T07:20:22.041Z,103372.66
2023-01-22T07:22:48.670Z,103372.59
2023-01-22T07:25:15.347Z,103372.41
2023-01-22T07:27:41.857Z,103374.06
2023-01-22T07:30:09.151Z,103368.81
2023-01-22T07:32:36.224Z,103379.47
2023-01-22T07:35:03.277Z,103378.44
2023-01-22T07:37:29.829Z,103378.84
2023-01-22T07:39:56.339Z,103387.00
2023-01-22T07:42:22.914Z,103388.91
2023-01-22T07:44:49.479Z,103389.13
2023-01-22T07:47:15.935Z,103398.16
2023-01-22T07:49:42.393Z,103401.72
2023-01-22T07:52:08.857Z,103400.47
2023-01-22T07:54:36.403Z,103411.38
2023-01-22T07:57:04.483Z,103413.66
2023-01-22T07:59:31.061Z,103409.25
2023-01-22T08:01:57.822Z,103421.38
2023-01-22T08:04:24.772Z,103406.06
2023-01-22T08:06:52.168Z,103412.97
2023-01-22T08:09:24.763Z,103406.91
2023-01-22T08:11:52.414Z,103409.03
2023-01-22T08:14:19.597Z,103411.31
2023-01-22T08:16:46.581Z,103411.50
2023-01-22T08:19:13.685Z,103413.41
2023-01-22T08:21:40.250Z,103410.28
2023-01-22T08:24:08.235Z,103417.81
2023-01-22T08:26:35.240Z,103407.78
2023-01-22T08:29:04.891Z,103403.59
2023-01-22T08:31:33.927Z,103413.25
2023-01-22T08:34:00.780Z,103409.94
2023-01-22T08:36:27.484Z,103408.66
2023-01-22T08:38:54.265Z,103412.81
2023-01-22T08:41:21.300Z,103419.47
2023-01-22T08:43:47.971Z,103421.16
2023-01-22T08:46:14.663Z,103420.94
2023-01-22T08:48:43.368Z,103422.63
2023-01-22T08:51:11.316Z,103422.22
2023-01-22T08:53:37.968Z,103422.88
2023-01-22T08:56:05.149Z,103422.00
2023-01-22T08:58:31.677Z,103435.81
2023-01-22T09:00:58.464Z,103430.81
2023-01-22T09:03:25.129Z,103440.63
2023-01-22T09:05:51.674Z,103433.94
2023-01-22T09:08:18.253Z,103422.88
2023-01-22T09:10:44.772Z,103420.34
2023-01-22T09:13:11.589Z,103430.41
2023-01-22T09:15:40.165Z,103424.97
2023-01-22T09:18:07.045Z,103434.59
2023-01-22T09:20:33.787Z,103429.13
2023-01-22T09:23:00.333Z,103431.84
2023-01-22T09:25:27.135Z,103434.13
2023-01-22T09:28:01.038Z,103434.34
2023-01-22T09:30:30.266Z,103429.13
2023-01-22T09:32:57.076Z,103445.44
2023-01-22T09:35:23.947Z,103438.75
2023-01-22T09:37:50.457Z,103434.09
2023-01-22T09:40:39.951Z,103443.50
2023-01-22T09:43:18.842Z,103445.16
2023-01-22T09:45:46.094Z,103443.28
2023-01-22T09:48:17.460Z,103449.56
2023-01-22T09:50:44.689Z,103456.06
2023-01-22T09:53:16.433Z,103454.78
2023-01-22T09:55:47.190Z,103451.22
2023-01-22T09:58:18.892Z,103460.47
2023-01-22T10:00:51.935Z,103471.56
2023-01-22T10:03:37.719Z,103471.56
2023-01-22T10:06:14.093Z,103459.44
2023-01-22T10:09:16.657Z,103469.72
2023-01-22T10:11:49.681Z,103467.19
2023-01-22T10:14:18.140Z,103470.34
2023-01-22T10:16:45.846Z,103462.00
2023-01-22T10:19:43.570Z,103467.44
2023-01-22T10:22:24.146Z,103447.13
2023-01-22T10:24:51.855Z,103458.38
2023-01-22T10:27:25.525Z,103452.28
2023-01-22T10:30:07.948Z,103450.16
2023-01-22T10:32:34.716Z,103448.06
2023-01-22T10:35:19.760Z,103444.28
2023-01-22T10:37:53.862Z,103441.13
2023-01-22T10:40:25.798Z,103452.69
2023-01-22T10:43:13.110Z,103446.84
2023-01-22T10:45:51.053Z,103448.94
2023-01-22T10:48:18.698Z,103444.72
2023-01-22T10:50:46.335Z,103441.16
2023-01-22T10:53:19.981Z,103447.44
2023-01-22T10:55:57.089Z,103444.28
2023-01-22T10:58:28.031Z,103435.84
2023-01-22T11:00:59.471Z,103432.47
2023-01-22T11:03:33.210Z,103434.75
2023-01-22T11:06:13.609Z,103434.75
2023-01-22T11:08:51.142Z,103428.25
2023-01-22T11:11:21.663Z,103431.00
2023-01-22T11:13:48.111Z,103425.56
2023-01-22T11:16:20.532Z,103418.41
2023-01-22T11:19:35.954Z,103429.53
2023-01-22T11:22:14.823Z,103429.53
2023-01-22T11:24:47.407Z,103429.53
2023-01-22T11:27:36.603Z,103427.41
2023-01-22T11:30:08.957Z,103425.91
2023-01-22T11:32:46.316Z,103424.03
2023-01-22T11:35:25.392Z,103414.81
2023-01-22T11:37:59.599Z,103416.47
2023-01-22T11:40:32.066Z,103425.91
2023-01-22T11:43:25.328Z,103423.19
2023-01-22T11:46:20.047Z,103421.91
2023-01-22T11:48:46.570Z,103432.59
2023-01-22T11:51:18.904Z,103423.97
2023-01-22T11:54:23.029Z,103424.19
2023-01-22T11:57:20.140Z,103428.59
2023-01-22T11:59:49.534Z,103419.81
2023-01-22T12:02:22.103Z,103422.09
2023-01-22T12:04:57.402Z,103423.97
2023-01-22T12:07:55.135Z,103421.88
2023-01-22T12:10:40.256Z,103416.25
2023-01-22T12:13:18.917Z,103416.69
2023-01-22T12:15:56.763Z,103413.34
2023-01-22T12:18:28.954Z,103409.41
2023-01-22T12:21:26.293Z,103411.72
2023-01-22T12:24:10.964Z,103407.09
2023-01-22T12:26:45.024Z,103407.94
2023-01-22T12:29:37.491Z,103406.47
2023-01-22T12:32:10.949Z,103401.56
2023-01-22T12:35:05.418Z,103402.25
2023-01-22T12:37:45.144Z,103409.13
2023-01-22T12:40:38.067Z,103403.66
2023-01-22T12:43:06.650Z,103402.00
2023-01-22T12:45:41.663Z,103406.63
2023-01-22T12:48:33.184Z,103395.94
2023-01-22T12:50:59.755Z,103396.41
2023-01-22T12:53:27.923Z,103394.72
2023-01-22T12:56:04.307Z,103392.84
2023-01-22T12:58:33.825Z,103397.03
2023-01-22T13:01:05.011Z,103394.16
2023-01-22T13:03:33.139Z,103386.38
2023-01-22T13:06:01.979Z,103384.44
2023-01-22T13:08:58.035Z,103372.88
2023-01-22T13:11:39.273Z,103384.78
2023-01-22T13:14:19.460Z,103388.09
2023-01-22T13:16:55.233Z,103386.00
2023-01-22T13:19:28.303Z,103382.22
2023-01-22T13:21:58.843Z,103381.38
2023-01-22T13:24:25.448Z,103385.38
2023-01-22T13:26:57.142Z,103383.47
2023-01-22T13:29:35.956Z,103385.16
2023-01-22T13:32:05.831Z,103379.72
2023-01-22T13:34:32.645Z,103382.66
2023-01-22T13:36:59.381Z,103388.09
2023-01-22T13:39:31.564Z,103382.25
2023-01-22T13:42:00.825Z,103386.28
2023-01-22T13:44:33.276Z,103386.28
2023-01-22T13:47:00.188Z,103383.88
2023-01-22T13:49:30.261Z,103381.16
2023-01-22T13:52:01.570Z,103382.59
2023-01-22T13:54:36.006Z,103396.00
2023-01-22T13:57:02.684Z,103387.59
2023-01-22T13:59:35.352Z,103387.81
2023-01-22T14:02:20.191Z,103386.16
2023-01-22T14:04:47.897Z,103398.94
2023-01-22T14:07:25.708Z,103398.94
2023-01-22T14:09:53.390Z,103393.34
2023-01-22T14:12:26.687Z,103392.94
2023-01-22T14:14:54.491Z,103395.06
2023-01-22T14:17:30.650Z,103401.19
2023-01-22T14:19:59.328Z,103400.53
2023-01-22T14:22:26.236Z,103399.97
2023-01-22T14:24:53.818Z,103410.41
2023-01-22T14:27:27.396Z,103410.97
2023-01-22T14:29:55.029Z,103413.00
2023-01-22T14:32:23.543Z,103426.44
2023-01-22T14:34:50.078Z,103417.19
2023-01-22T14:37:17.454Z,103423.25
2023-01-22T14:39:43.935Z,103428.94
2023-01-22T14:42:10.568Z,103415.53
2023-01-22T14:44:37.217Z,103413.66
2023-01-22T14:47:04.290Z,103418.69
2023-01-22T14:49:30.944Z,103421.88
2023-01-22T14:51:57.638Z,103417.69
2023-01-22T14:54:25.120Z,103415.19
2023-01-22T14:56:51.701Z,103415.63
2023-01-22T14:59:20.690Z,103415.00
2023-01-22T15:01:47.474Z,103410.84
2023-01-22T15:04:14.147Z,103411.69
2023-01-22T15:06:40.703Z,103413.28
2023-01-22T15:09:07.545Z,103423.09
2023-01-22T15:11:34.107Z,103417.41
2023-01-22T15:14:00.647Z,103411.13
2023-01-22T15:16:27.436Z,103405.91
2023-01-22T15:18:55.725Z,103409.06
2023-01-22T15:21:23.107Z,103417.25
2023-01-22T15:23:50.084Z,103409.50
2023-01-22T15:26:24.261Z,103416.56
2023-01-22T15:28:50.759Z,103416.13
2023-01-22T15:31:17.640Z,103416.56
2023-01-22T15:33:44.203Z,103413.25
2023-01-22T15:36:10.761Z,103421.63
2023-01-22T15:38:37.242Z,103415.78
2023-01-22T15:41:03.719Z,103425.03
2023-01-22T15:43:30.228Z,103428.59
2023-01-22T15:45:56.973Z,103439.88
2023-01-22T15:48:23.469Z,103436.28
2023-01-22T15:50:50.014Z,103431.03
2023-01-22T15:53:16.562Z,103436.72
2023-01-22T15:55:49.669Z,103439.66
2023-01-22T15:58:16.487Z,103435.50
2023-01-22T16:00:43.046Z,103452.06
2023-01-22T16:03:09.638Z,103445.16
2023-01-22T16:05:36.200Z,103437.38
2023-01-22T16:08:03.385Z,103450.19
2023-01-22T16:10:29.880Z,103453.09
2023-01-22T16:12:56.383Z,103443.28
2023-01-22T16:15:22.873Z,103459.84
2023-01-22T16:17:49.373Z,103443.94
2023-01-22T16:20:16.295Z,103448.56
2023-01-22T16:22:45.477Z,103443.31
2023-01-22T16:25:12.320Z,103446.03
2023-01-22T16:27:39.114Z,103453.63
2023-01-22T16:30:07.385Z,103462.00
2023-01-22T16:32:37.179Z,103458.44
2023-01-22T16:35:04.198Z,103455.09
2023-01-22T16:37:31.087Z,103449.88
2023-01-22T16:39:57.603Z,103463.72
2023-01-22T16:42:24.103Z,103452.81
2023-01-22T16:44:50.603Z,103460.16
2023-01-22T16:47:17.139Z,103458.88
2023-01-22T16:49:43.846Z,103466.59
2023-01-22T16:52:21.894Z,103455.44
2023-01-22T16:54:49.674Z,103465.31
2023-01-22T16:57:16.529Z,103461.94
2023-01-22T16:59:43.254Z,103471.19
2023-01-22T17:02:15.907Z,103462.38
2023-01-22T17:04:42.526Z,103468.06
2023-01-22T17:07:15.356Z,103473.28
2023-01-22T17:09:47.584Z,103475.41
2023-01-22T17:12:14.234Z,103472.06
2023-01-22T17:14:41.082Z,103473.72
2023-01-22T17:17:08.685Z,103477.50
2023-01-22T17:19:36.093Z,103476.91
2023-01-22T17:22:03.303Z,103473.31
2023-01-22T17:24:31.418Z,103474.19
2023-01-22T17:26:58.495Z,103476.44
2023-01-22T17:29:25.368Z,103478.06
2023-01-22T17:31:52.460Z,103473.25
2023-01-22T17:34:19.292Z,103479.75
2023-01-22T17:36:45.848Z,103483.50
2023-01-22T17:39:15.846Z,103479.97
2023-01-22T17:41:43.577Z,103487.53
2023-01-22T17:44:10.377Z,103490.25
2023-01-22T17:46:37.026Z,103500.31
2023-01-22T17:49:04.660Z,103498.44
2023-01-22T17:51:33.261Z,103496.13
2023-01-22T17:54:05.104Z,103490.69
2023-01-22T17:56:37.908Z,103492.78
2023-01-22T17:59:06.948Z,103496.13
2023-01-22T18:01:35.821Z,103494.69
2023-01-22T18:04:06.153Z,103482.13
2023-01-22T18:06:32.745Z,103496.38
2023-01-22T18:09:00.634Z,103486.91
2023-01-22T18:11:28.620Z,103489.84
2023-01-22T18:14:03.413Z,103492.34
2023-01-22T18:16:33.199Z,103488.19
2023-01-22T18:19:01.701Z,103493.66
2023-01-22T18:21:29.026Z,103496.38
2023-01-22T18:23:56.235Z,103503.69
2023-01-22T18:26:23.779Z,103497.81
2023-01-22T18:28:51.459Z,103506.59
2023-01-22T18:31:22.359Z,103504.91
2023-01-22T18:33:49.079Z,103502.19
2023-01-22T18:36:19.982Z,103500.75
2023-01-22T18:38:46.807Z,103508.31
2023-01-22T18:41:17.052Z,103507.47
2023-01-22T18:43:47.531Z,103494.91
2023-01-22T18:46:14.349Z,103493.84
2023-01-22T18:48:41.879Z,103495.06
2023-01-22T18:51:11.097Z,103489.63
2023-01-22T18:53:37.697Z,103498.88
2023-01-22T18:56:07.025Z,103492.59
2023-01-22T18:58:37.814Z,103501.81
2023-01-22T19:01:17.181Z,103490.06
2023-01-22T19:03:45.807Z,103494.47
2023-01-22T19:06:16.250Z,103485.00
2023-01-22T19:08:53.093Z,103495.50
2023-01-22T19:11:19.813Z,103494.47
2023-01-22T19:13:46.516Z,103493.66
2023-01-22T19:16:15.442Z,103487.34
2023-01-22T19:18:43.877Z,103490.06
2023-01-22T19:21:12.667Z,103495.50
2023-01-22T19:23:39.188Z,103498.47
2023-01-22T19:26:14.832Z,103500.97
2023-01-22T19:28:41.968Z,103498.03
2023-01-22T19:31:20.749Z,103494.47
2023-01-22T19:33:49.553Z,103497.41
2023-01-22T19:36:16.562Z,103498.47
2023-01-22T19:38:43.485Z,103493.84
2023-01-22T19:41:10.435Z,103493.25
2023-01-22T19:43:37.165Z,103502.25
2023-01-22T19:46:09.484Z,103500.97
2023-01-22T19:48:36.162Z,103498.22
2023-01-22T19:51:06.393Z,103504.53
2023-01-22T19:53:34.568Z,103507.28
2023-01-22T19:56:01.377Z,103505.56
2023-01-22T19:58:28.424Z,103506.41
2023-01-22T20:00:55.876Z,103512.91
2023-01-22T20:03:23.407Z,103515.88
2023-01-22T20:05:50.391Z,103512.72
2023-01-22T20:08:17.111Z,103521.72
2023-01-22T20:10:43.635Z,103519.00
2023-01-22T20:13:11.311Z,103515.66
2023-01-22T20:15:39.770Z,103525.47
2023-01-22T20:18:07.864Z,103521.72
2023-01-22T20:20:35.057Z,103523.63
2023-01-22T20:23:02.648Z,103521.94
2023-01-22T20:25:31.708Z,103519.19
2023-01-22T20:27:59.417Z,103522.56
2023-01-22T20:30:26.149Z,103526.13
2023-01-22T20:32:53.540Z,103535.94
2023-01-22T20:35:21.392Z,103546.66
2023-01-22T20:37:48.147Z,103555.03
2023-01-22T20:40:14.831Z,103546.00
2023-01-22T20:42:41.414Z,103538.66
2023-01-22T20:45:08.282Z,103543.06
2023-01-22T20:47:35.830Z,103550.63
2023-01-22T20:50:04.127Z,103544.34
2023-01-22T20:52:31.004Z,103541.81
2023-01-22T20:55:01.685Z,103538.91
2023-01-22T20:57:30.089Z,103539.72
2023-01-22T20:59:56.895Z,103539.34
2023-01-22T21:02:23.688Z,103543.94
2023-01-22T21:04:52.109Z,103548.78
2023-01-22T21:07:18.965Z,103554.66
2023-01-22T21:09:45.493Z,103546.94
2023-01-22T21:12:13.202Z,103555.94
2023-01-22T21:14:40.259Z,103547.38
2023-01-22T21:17:07.060Z,103544.84
2023-01-22T21:19:33.557Z,103546.97
2023-01-22T21:22:01.009Z,103557.22
2023-01-22T21:24:27.911Z,103543.00
2023-01-22T21:26:54.497Z,103537.34
2023-01-22T21:29:23.082Z,103546.38
2023-01-22T21:31:52.128Z,103549.53
2023-01-22T21:34:22.225Z,103555.63
2023-01-22T21:36:50.658Z,103554.75
2023-01-22T21:39:19.932Z,103555.00
2023-01-22T21:41:46.924Z,103561.69
2023-01-22T21:44:35.746Z,103556.69
2023-01-22T21:47:03.046Z,103554.97
2023-01-22T21:49:32.760Z,103558.13
2023-01-22T21:52:05.732Z,103561.72
2023-01-22T21:54:38.207Z,103564.63
2023-01-22T21:57:06.180Z,103566.75
2023-01-22T21:59:33.180Z,103562.97
2023-01-22T22:01:59.729Z,103560.66
2023-01-22T22:04:27.530Z,103555.22
2023-01-22T22:06:54.536Z,103566.13
2023-01-22T22:09:24.217Z,103568.22
2023-01-22T22:11:51.463Z,103572.22
2023-01-22T22:14:22.354Z,103569.91
2023-01-22T22:16:49.162Z,103581.84
2023-01-22T22:19:17.563Z,103576.59
2023-01-22T22:21:44.794Z,103570.56
2023-01-22T22:24:11.873Z,103565.13
2023-01-22T22:26:39.411Z,103573.69
2023-01-22T22:29:07.651Z,103570.34
2023-01-22T22:31:34.449Z,103571.63
2023-01-22T22:34:00.965Z,103576.22
2023-01-22T22:36:29.499Z,103582.50
2023-01-22T22:38:56.745Z,103578.94
2023-01-22T22:41:28.315Z,103585.41
2023-01-22T22:43:55.594Z,103587.53
2023-01-22T22:46:25.006Z,103587.53
2023-01-22T22:48:53.310Z,103581.69
2023-01-22T22:51:21.749Z,103584.41
2023-01-22T22:53:51.253Z,103577.47
2023-01-22T22:56:18.028Z,103589.44
2023-01-22T22:58:44.608Z,103581.50
2023-01-22T23:01:22.391Z,103588.78
2023-01-22T23:03:49.162Z,103587.34
2023-01-22T23:06:21.143Z,103596.53
2023-01-22T23:08:52.338Z,103583.16
2023-01-22T23:11:21.819Z,103589.66
2023-01-22T23:13:52.198Z,103590.72
2023-01-22T23:16:21.667Z,103595.94
2023-01-22T23:18:50.686Z,103586.28
2023-01-22T23:21:23.578Z,103592.78
2023-01-22T23:23:51.175Z,103590.28
2023-01-22T23:26:29.747Z,103590.47
2023-01-22T23:28:58.471Z,103591.53
2023-01-22T23:31:27.083Z,103593.63
2023-01-22T23:33:55.551Z,103602.00
2023-01-22T23:36:22.891Z,103610.16
2023-01-22T23:38:49.477Z,103611.41
2023-01-22T23:41:18.144Z,103604.06
2023-01-22T23:43:44.906Z,103600.53
2023-01-22T23:46:17.644Z,103607.25
2023-01-22T23:48:44.580Z,103598.22
2023-01-22T23:51:13.216Z,103596.56
2023-01-22T23:53:42.218Z,103600.09
2023-01-22T23:56:10.895Z,103594.25
2023-01-22T23:58:38.010Z,103596.97
